Time,TemperatureF,DewpointF,PressureIn,WindDirection,WindDirectionDegrees,WindSpeedMPH,WindSpeedGustMPH,Humidity,HourlyPrecipIn,Conditions,Clouds,dailyrainin,SoftwareType,DateUTC
2013-03-13 00:05:00,33.0,31.0,30.11,South,187,0.0,0.0,93,0.00,,,0.00,weatherlink.com 1.10,2013-03-13 04:05:00,
2013-03-13 00:20:00,32.7,31.0,30.11,WSW,255,0.0,1.0,94,0.00,,,0.00,weatherlink.com 1.10,2013-03-13 04:20:00,
2013-03-13 00:35:00,32.2,31.0,30.11,WSW,255,0.0,0.0,94,0.00,,,0.00,weatherlink.com 1.10,2013-03-13 04:35:00,
2013-03-13 00:50:00,31.9,30.0,30.11,WSW,255,0.0,0.0,94,0.00,,,0.00,weatherlink.com 1.10,2013-03-13 04:50:00,
2013-03-13 01:05:00,31.6,30.0,30.11,WSW,255,0.0,1.0,94,0.00,,,0.00,weatherlink.com 1.10,2013-03-13 05:05:00,
2013-03-13 01:20:00,31.3,30.0,30.11,WSW,255,0.0,1.0,95,0.00,,,0.00,weatherlink.com 1.10,2013-03-13 05:20:00,
2013-03-13 01:35:00,31.1,30.0,30.10,SW,219,0.0,1.0,95,0.00,,,0.00,weatherlink.com 1.10,2013-03-13 05:35:00,
2013-03-13 01:50:00,31.0,30.0,30.11,NNE,25,0.0,1.0,95,0.00,,,0.00,weatherlink.com 1.10,2013-03-13 05:50:00,
2013-03-13 02:05:00,31.0,30.0,30.11,WNW,288,0.0,1.0,94,0.00,,,0.00,weatherlink.com 1.10,2013-03-13 06:05:00,
2013-03-13 02:20:00,30.5,29.0,30.11,West,259,0.0,1.0,95,0.00,,,0.00,weatherlink.com 1.10,2013-03-13 06:20:00,
2013-03-13 02:35:00,30.2,29.0,30.11,WNW,296,0.0,1.0,95,0.00,,,0.00,weatherlink.com 1.10,2013-03-13 06:35:00,
2013-03-13 02:50:00,30.0,29.0,30.11,WNW,297,0.0,1.0,95,0.00,,,0.00,weatherlink.com 1.10,2013-03-13 06:50:00,
2013-03-13 03:05:00,29.7,29.0,30.11,WNW,296,0.0,0.0,96,0.00,,,0.00,weatherlink.com 1.10,2013-03-13 07:05:00,
2013-03-13 03:20:00,29.4,28.0,30.11,WNW,297,0.0,0.0,95,0.00,,,0.00,weatherlink.com 1.10,2013-03-13 07:20:00,
2013-03-13 03:35:00,29.4,28.0,30.11,West,264,0.0,1.0,95,0.00,,,0.00,weatherlink.com 1.10,2013-03-13 07:35:00,
2013-03-13 03:50:00,29.2,28.0,30.10,SE,124,0.0,1.0,95,0.00,,,0.00,weatherlink.com 1.10,2013-03-13 07:50:00,
2013-03-13 04:20:00,29.1,28.0,30.10,NNE,16,0.0,1.0,95,0.00,,,0.00,weatherlink.com 1.10,2013-03-13 08:20:00,
2013-03-13 04:35:00,28.9,28.0,30.11,West,276,0.0,2.0,95,0.00,,,0.00,weatherlink.com 1.10,2013-03-13 08:35:00,
2013-03-13 04:50:00,28.5,27.0,30.10,South,182,0.0,0.0,95,0.00,,,0.00,weatherlink.com 1.10,2013-03-13 08:50:00,
2013-03-13 05:05:00,28.4,27.0,30.10,SSW,207,0.0,1.0,96,0.00,,,0.00,weatherlink.com 1.10,2013-03-13 09:05:00,
2013-03-13 05:20:00,28.3,27.0,30.10,ESE,115,0.0,2.0,96,0.00,,,0.00,weatherlink.com 1.10,2013-03-13 09:20:00,
2013-03-13 05:35:00,28.2,27.0,30.11,West,281,2.0,3.0,96,0.00,,,0.00,weatherlink.com 1.10,2013-03-13 09:35:00,
2013-03-13 05:50:00,28.0,27.0,30.10,NE,49,0.0,1.0,96,0.00,,,0.00,weatherlink.com 1.10,2013-03-13 09:50:00,
2013-03-13 06:05:00,27.7,27.0,30.11,West,278,0.0,1.0,95,0.00,,,0.00,weatherlink.com 1.10,2013-03-13 10:05:00,
2013-03-13 06:20:00,27.7,27.0,30.11,SW,228,0.0,1.0,95,0.00,,,0.00,weatherlink.com 1.10,2013-03-13 10:20:00,
2013-03-13 06:35:00,27.5,26.0,30.11,South,173,0.0,1.0,95,0.00,,,0.00,weatherlink.com 1.10,2013-03-13 10:35:00,
2013-03-13 06:50:00,27.3,26.0,30.11,SSW,209,0.0,1.0,96,0.00,,,0.00,weatherlink.com 1.10,2013-03-13 10:50:00,
2013-03-13 07:05:00,27.5,27.0,30.11,SE,125,0.0,1.0,96,0.00,,,0.00,weatherlink.com 1.10,2013-03-13 11:05:00,
2013-03-13 07:20:00,27.3,26.0,30.11,ENE,58,0.0,1.0,96,0.00,,,0.00,weatherlink.com 1.10,2013-03-13 11:20:00,
2013-03-13 07:35:00,27.2,26.0,30.12,WNW,295,0.0,1.0,96,0.00,,,0.00,weatherlink.com 1.10,2013-03-13 11:35:00,
2013-03-13 07:50:00,26.9,26.0,30.12,West,263,0.0,1.0,95,0.00,,,0.00,weatherlink.com 1.10,2013-03-13 11:50:00,
2013-03-13 08:05:00,26.9,26.0,30.13,SW,219,0.0,1.0,96,0.00,,,0.00,weatherlink.com 1.10,2013-03-13 12:05:00,
2013-03-13 08:20:00,26.9,26.0,30.13,SW,223,0.0,1.0,95,0.00,,,0.00,weatherlink.com 1.10,2013-03-13 12:20:00,
2013-03-13 08:36:00,27.9,27.0,30.14,WSW,244,0.0,2.0,96,0.00,,,0.00,weatherlink.com 1.10,2013-03-13 12:36:00,
2013-03-13 08:51:00,30.0,29.0,30.14,SSW,212,0.0,1.0,95,0.00,,,0.00,weatherlink.com 1.10,2013-03-13 12:51:00,
2013-03-13 09:06:00,32.4,31.0,30.14,ESE,121,1.0,1.0,94,0.00,,,0.00,weatherlink.com 1.10,2013-03-13 13:06:00,
2013-03-13 09:21:00,36.2,33.0,30.13,WNW,297,0.0,1.0,89,0.00,,,0.00,weatherlink.com 1.10,2013-03-13 13:21:00,
2013-03-13 09:36:00,38.3,31.0,30.14,ENE,61,1.0,4.0,75,0.00,,,0.00,weatherlink.com 1.10,2013-03-13 13:36:00,
2013-03-13 09:51:00,41.3,28.0,30.13,WSW,243,4.0,9.0,60,0.00,,,0.00,weatherlink.com 1.10,2013-03-13 13:51:00,
2013-03-13 10:06:00,42.5,26.0,30.14,NW,309,1.0,9.0,52,0.00,,,0.00,weatherlink.com 1.10,2013-03-13 14:06:00,
2013-03-13 10:36:00,43.8,24.0,30.14,SSW,208,7.0,10.0,45,0.00,,,0.00,weatherlink.com 1.10,2013-03-13 14:36:00,
2013-03-13 10:51:00,44.1,23.0,30.13,SSW,211,3.0,9.0,43,0.00,,,0.00,weatherlink.com 1.10,2013-03-13 14:51:00,
2013-03-13 11:21:00,45.6,22.0,30.13,NW,322,3.0,15.0,40,0.00,,,0.00,weatherlink.com 1.10,2013-03-13 15:21:00,
2013-03-13 11:51:00,46.4,22.0,30.12,WSW,257,6.0,11.0,38,0.00,,,0.00,weatherlink.com 1.10,2013-03-13 15:51:00,
2013-03-13 12:06:00,46.3,21.0,30.13,NW,314,5.0,13.0,36,0.00,,,0.00,weatherlink.com 1.10,2013-03-13 16:06:00,
2013-03-13 12:21:00,46.4,21.0,30.13,NW,311,4.0,10.0,36,0.00,,,0.00,weatherlink.com 1.10,2013-03-13 16:21:00,
2013-03-13 12:36:00,46.5,19.0,30.12,West,280,5.0,17.0,34,0.00,,,0.00,weatherlink.com 1.10,2013-03-13 16:36:00,
2013-03-13 12:51:00,46.7,19.0,30.12,West,278,9.0,15.0,33,0.00,,,0.00,weatherlink.com 1.10,2013-03-13 16:51:00,
2013-03-13 13:06:00,46.6,19.0,30.12,NNW,339,6.0,13.0,33,0.00,,,0.00,weatherlink.com 1.10,2013-03-13 17:06:00,
2013-03-13 13:36:00,46.8,19.0,30.11,SSW,203,4.0,14.0,33,0.00,,,0.00,weatherlink.com 1.10,2013-03-13 17:36:00,
2013-03-13 13:51:00,47.3,19.0,30.11,West,278,3.0,14.0,33,0.00,,,0.00,weatherlink.com 1.10,2013-03-13 17:51:00,
2013-03-13 14:21:00,48.0,21.0,30.10,NW,326,2.0,10.0,34,0.00,,,0.00,weatherlink.com 1.10,2013-03-13 18:21:00,
2013-03-13 14:36:00,48.2,20.0,30.09,West,281,3.0,10.0,33,0.00,,,0.00,weatherlink.com 1.10,2013-03-13 18:36:00,
2013-03-13 14:51:00,48.9,20.0,30.08,WNW,293,2.0,9.0,32,0.00,,,0.00,weatherlink.com 1.10,2013-03-13 18:51:00,
2013-03-13 15:07:00,49.5,21.0,30.08,NW,312,5.0,13.0,33,0.00,,,0.00,weatherlink.com 1.10,2013-03-13 19:07:00,
2013-03-13 15:21:00,49.7,23.0,30.08,West,262,1.0,10.0,35,0.00,,,0.00,weatherlink.com 1.10,2013-03-13 19:21:00,
2013-03-13 15:52:00,49.1,21.0,30.08,NW,321,7.0,12.0,33,0.00,,,0.00,weatherlink.com 1.10,2013-03-13 19:52:00,
2013-03-13 16:07:00,49.1,20.0,30.08,NW,313,6.0,12.0,32,0.00,,,0.00,weatherlink.com 1.10,2013-03-13 20:07:00,
2013-03-13 16:22:00,48.7,21.0,30.09,NW,324,3.0,10.0,33,0.00,,,0.00,weatherlink.com 1.10,2013-03-13 20:22:00,
2013-03-13 16:37:00,49.3,22.0,30.09,North,354,0.0,12.0,34,0.00,,,0.00,weatherlink.com 1.10,2013-03-13 20:37:00,
2013-03-13 16:52:00,49.5,21.0,30.10,WNW,285,1.0,6.0,33,0.00,,,0.00,weatherlink.com 1.10,2013-03-13 20:52:00,
2013-03-13 17:07:00,48.7,21.0,30.10,West,273,3.0,7.0,33,0.00,,,0.00,weatherlink.com 1.10,2013-03-13 21:07:00,
2013-03-13 17:22:00,48.8,19.0,30.10,NW,321,3.0,8.0,31,0.00,,,0.00,weatherlink.com 1.10,2013-03-13 21:22:00,
2013-03-13 17:37:00,48.5,19.0,30.10,NW,322,2.0,10.0,31,0.00,,,0.00,weatherlink.com 1.10,2013-03-13 21:37:00,
2013-03-13 17:52:00,46.8,19.0,30.11,WNW,287,2.0,13.0,33,0.00,,,0.00,weatherlink.com 1.10,2013-03-13 21:52:00,
2013-03-13 18:07:00,46.0,18.0,30.11,West,264,1.0,6.0,33,0.00,,,0.00,weatherlink.com 1.10,2013-03-13 22:07:00,
2013-03-13 18:22:00,44.4,18.0,30.12,WSW,245,0.0,7.0,35,0.00,,,0.00,weatherlink.com 1.10,2013-03-13 22:22:00,
2013-03-13 18:37:00,43.4,17.0,30.13,West,269,1.0,5.0,35,0.00,,,0.00,weatherlink.com 1.10,2013-03-13 22:37:00,
2013-03-13 18:52:00,41.3,17.0,30.14,West,266,2.0,8.0,37,0.00,,,0.00,weatherlink.com 1.10,2013-03-13 22:52:00,
2013-03-13 19:07:00,40.4,18.0,30.15,SW,215,3.0,7.0,40,0.00,,,0.00,weatherlink.com 1.10,2013-03-13 23:07:00,
2013-03-13 19:22:00,39.6,17.0,30.15,NW,323,4.0,8.0,40,0.00,,,0.00,weatherlink.com 1.10,2013-03-13 23:22:00,
2013-03-13 19:37:00,38.8,17.0,30.15,SW,233,2.0,7.0,42,0.00,,,0.00,weatherlink.com 1.10,2013-03-13 23:37:00,
2013-03-13 19:52:00,37.6,18.0,30.16,SW,222,0.0,3.0,46,0.00,,,0.00,weatherlink.com 1.10,2013-03-13 23:52:00,
2013-03-13 20:07:00,37.1,18.0,30.16,ESE,123,0.0,2.0,46,0.00,,,0.00,weatherlink.com 1.10,2013-03-14 00:07:00,
2013-03-13 20:22:00,36.4,19.0,30.17,ESE,116,0.0,3.0,49,0.00,,,0.00,weatherlink.com 1.10,2013-03-14 00:22:00,
2013-03-13 20:37:00,35.2,20.0,30.18,SE,139,2.0,2.0,54,0.00,,,0.00,weatherlink.com 1.10,2013-03-14 00:37:00,
2013-03-13 20:52:00,34.8,19.0,30.18,SE,146,0.0,2.0,52,0.00,,,0.00,weatherlink.com 1.10,2013-03-14 00:52:00,
2013-03-13 21:07:00,34.0,20.0,30.17,East,94,0.0,1.0,56,0.00,,,0.00,weatherlink.com 1.10,2013-03-14 01:07:00,
2013-03-13 21:22:00,33.3,21.0,30.18,ESE,117,0.0,1.0,61,0.00,,,0.00,weatherlink.com 1.10,2013-03-14 01:22:00,
2013-03-13 21:37:00,33.2,20.0,30.18,WNW,284,0.0,3.0,58,0.00,,,0.00,weatherlink.com 1.10,2013-03-14 01:37:00,
2013-03-13 21:52:00,33.2,19.0,30.18,SE,128,0.0,2.0,56,0.00,,,0.00,weatherlink.com 1.10,2013-03-14 01:52:00,
2013-03-13 22:07:00,32.3,20.0,30.18,SSE,158,0.0,2.0,60,0.00,,,0.00,weatherlink.com 1.10,2013-03-14 02:07:00,
2013-03-13 22:22:00,32.2,19.0,30.18,NNE,22,0.0,3.0,59,0.00,,,0.00,weatherlink.com 1.10,2013-03-14 02:22:00,
2013-03-13 22:37:00,31.8,20.0,30.18,ESE,117,1.0,3.0,61,0.00,,,0.00,weatherlink.com 1.10,2013-03-14 02:37:00,
2013-03-13 22:52:00,31.2,19.0,30.19,SE,134,0.0,3.0,62,0.00,,,0.00,weatherlink.com 1.10,2013-03-14 02:52:00,
2013-03-13 23:07:00,31.2,19.0,30.19,East,98,0.0,2.0,61,0.00,,,0.00,weatherlink.com 1.10,2013-03-14 03:07:00,
2013-03-13 23:22:00,31.4,20.0,30.20,NE,37,3.0,6.0,62,0.00,,,0.00,weatherlink.com 1.10,2013-03-14 03:22:00,
2013-03-13 23:37:00,31.1,19.0,30.20,NE,35,0.0,5.0,61,0.00,,,0.00,weatherlink.com 1.10,2013-03-14 03:37:00,
2013-03-13 23:52:00,31.0,19.0,30.20,ENE,67,0.0,7.0,61,0.00,,,0.00,weatherlink.com 1.10,2013-03-14 03:52:00,